createdAt,value
2023-02-16T00:02:13.221Z,35.63
2023-02-16T00:04:42.566Z,35.57
2023-02-16T00:07:10.542Z,44.30
2023-02-16T00:09:38.493Z,38.27
2023-02-16T00:12:36.986Z,42.20
2023-02-16T00:15:17.038Z,39.50
2023-02-16T00:17:44.957Z,41.93
2023-02-16T00:20:17.645Z,40.00
2023-02-16T00:22:45.816Z,40.37
2023-02-16T00:25:13.814Z,42.97
2023-02-16T00:27:41.835Z,42.47
2023-02-16T00:30:16.326Z,39.13
2023-02-16T00:32:44.826Z,41.10
2023-02-16T00:35:17.203Z,49.40
2023-02-16T00:37:45.162Z,38.73
2023-02-16T00:40:14.500Z,37.37
2023-02-16T00:42:44.018Z,43.57
2023-02-16T00:45:19.894Z,44.40
2023-02-16T00:47:50.667Z,43.53
2023-02-16T00:50:24.698Z,42.97
2023-02-16T00:52:53.142Z,38.17
2023-02-16T00:55:23.263Z,43.83
2023-02-16T00:57:53.987Z,37.57
2023-02-16T01:00:26.363Z,47.90
2023-02-16T01:02:58.257Z,43.03
2023-02-16T01:05:27.569Z,43.70
2023-02-16T01:08:13.717Z,41.13
2023-02-16T01:10:59.305Z,40.90
2023-02-16T01:13:30.741Z,43.33
2023-02-16T01:15:59.057Z,47.57
2023-02-16T01:18:27.186Z,46.23
2023-02-16T01:20:56.610Z,45.40
2023-02-16T01:23:24.616Z,43.53
2023-02-16T01:25:52.610Z,43.73
2023-02-16T01:28:22.814Z,46.50
2023-02-16T01:30:51.806Z,46.10
2023-02-16T01:33:20.832Z,36.53
2023-02-16T01:35:49.482Z,44.80
2023-02-16T01:38:21.260Z,43.73
2023-02-16T01:40:56.815Z,41.63
2023-02-16T01:43:30.082Z,47.10
2023-02-16T01:46:04.466Z,43.93
2023-02-16T01:48:33.467Z,39.47
2023-02-16T01:51:08.046Z,41.17
2023-02-16T01:53:44.161Z,45.10
2023-02-16T01:56:21.210Z,40.83
2023-02-16T01:58:52.076Z,43.10
2023-02-16T02:01:39.413Z,46.07
2023-02-16T02:04:44.235Z,46.70
2023-02-16T02:07:19.954Z,40.40
2023-02-16T02:09:57.369Z,40.40
2023-02-16T02:12:33.295Z,39.77
2023-02-16T02:15:01.361Z,46.17
2023-02-16T02:17:30.569Z,42.60
2023-02-16T02:20:11.923Z,43.47
2023-02-16T02:23:34.233Z,38.20
2023-02-16T02:26:38.843Z,52.67
2023-02-16T02:29:44.558Z,50.73
2023-02-16T02:32:22.787Z,44.90
2023-02-16T02:35:09.298Z,47.13
2023-02-16T02:37:47.002Z,50.33
2023-02-16T02:40:24.047Z,43.40
2023-02-16T02:43:00.751Z,50.83
2023-02-16T02:45:33.347Z,46.77
2023-02-16T02:48:01.568Z,44.40
2023-02-16T02:51:04.215Z,38.80
2023-02-16T02:53:46.388Z,54.23
2023-02-16T02:56:37.345Z,46.93
2023-02-16T02:59:26.850Z,53.60
2023-02-16T03:02:33.500Z,40.07
2023-02-16T03:07:57.502Z,43.23
2023-02-16T03:08:17.176Z,46.10
2023-02-16T03:10:46.296Z,42.90
2023-02-16T03:13:18.781Z,42.83
2023-02-16T03:15:55.944Z,54.37
2023-02-16T03:18:46.176Z,44.00
2023-02-16T03:21:33.628Z,29.97
2023-02-16T03:24:21.719Z,39.73
2023-02-16T03:27:09.479Z,41.47
2023-02-16T03:29:57.970Z,44.07
2023-02-16T03:32:26.106Z,45.97
2023-02-16T03:34:55.473Z,47.03
2023-02-16T03:37:23.569Z,43.67
2023-02-16T03:40:08.264Z,51.17
2023-02-16T03:42:36.606Z,47.07
2023-02-16T03:47:50.806Z,38.53
2023-02-16T03:50:20.246Z,50.37
2023-02-16T03:52:48.227Z,45.47
2023-02-16T03:55:19.019Z,43.97
2023-02-16T03:57:47.031Z,45.47
2023-02-16T04:00:15.623Z,45.37
2023-02-16T04:02:43.620Z,45.10
2023-02-16T04:05:11.540Z,45.43
2023-02-16T04:07:40.899Z,42.43
2023-02-16T04:10:09.067Z,41.90
2023-02-16T04:12:39.036Z,46.17
2023-02-16T04:15:10.152Z,47.50
2023-02-16T04:17:38.348Z,41.60
2023-02-16T04:20:07.679Z,52.30
2023-02-16T04:22:35.694Z,48.07
2023-02-16T04:25:05.658Z,45.00
2023-02-16T04:27:33.657Z,44.73
2023-02-16T04:30:01.959Z,38.97
2023-02-16T04:32:30.102Z,45.37
2023-02-16T04:34:58.151Z,34.80
2023-02-16T04:37:26.207Z,41.10
2023-02-16T04:39:54.259Z,39.60
2023-02-16T04:42:32.668Z,36.37
2023-02-16T04:45:47.217Z,35.53
2023-02-16T04:48:15.289Z,34.67
2023-02-16T04:53:49.766Z,44.93
2023-02-16T04:56:18.272Z,37.87
2023-02-16T04:58:47.626Z,42.43
2023-02-16T05:01:20.844Z,38.03
2023-02-16T05:03:49.522Z,37.50
2023-02-16T05:06:17.563Z,40.13
2023-02-16T05:08:47.780Z,42.43
2023-02-16T05:11:33.428Z,38.57
2023-02-16T05:14:20.387Z,39.10
2023-02-16T05:16:48.603Z,34.00
2023-02-16T05:19:16.616Z,25.00
2023-02-16T05:21:44.605Z,35.90
2023-02-16T05:24:13.068Z,35.73
2023-02-16T05:26:41.361Z,37.43
2023-02-16T05:29:10.689Z,40.20
2023-02-16T05:31:38.790Z,34.00
2023-02-16T05:34:06.842Z,39.90
2023-02-16T05:36:35.092Z,34.90
2023-02-16T05:39:03.904Z,35.57
2023-02-16T05:41:39.880Z,28.07
2023-02-16T05:44:09.949Z,23.37
2023-02-16T05:46:41.747Z,34.10
2023-02-16T05:49:10.895Z,30.43
2023-02-16T05:51:42.917Z,40.57
2023-02-16T05:54:17.105Z,39.23
2023-02-16T05:56:46.197Z,30.80
2023-02-16T05:59:16.269Z,34.83
2023-02-16T06:01:49.446Z,34.97
2023-02-16T06:04:19.426Z,36.87
2023-02-16T06:06:47.697Z,37.87
2023-02-16T06:09:16.113Z,37.83
2023-02-16T06:11:44.630Z,35.80
2023-02-16T06:14:14.263Z,32.10
2023-02-16T06:16:45.732Z,35.50
2023-02-16T06:19:14.829Z,34.50
2023-02-16T06:22:13.248Z,34.13
2023-02-16T06:24:41.853Z,40.77
2023-02-16T06:27:10.672Z,30.77
2023-02-16T06:29:41.134Z,36.97
2023-02-16T06:32:10.969Z,34.10
2023-02-16T06:34:39.009Z,37.10
2023-02-16T06:37:07.209Z,31.07
2023-02-16T06:39:53.458Z,33.43
2023-02-16T06:42:21.534Z,34.83
2023-02-16T06:44:53.957Z,36.23
2023-02-16T06:47:24.790Z,38.37
2023-02-16T06:49:52.759Z,30.13
2023-02-16T06:52:20.866Z,29.57
2023-02-16T06:54:52.022Z,37.97
2023-02-16T07:00:31.080Z,33.83
2023-02-16T07:03:02.984Z,30.07
2023-02-16T07:05:31.162Z,30.93
2023-02-16T07:07:59.297Z,30.17
2023-02-16T07:10:34.641Z,40.47
2023-02-16T07:13:08.277Z,34.27
2023-02-16T07:15:36.250Z,33.40
2023-02-16T07:18:09.178Z,29.77
2023-02-16T07:20:37.876Z,29.10
2023-02-16T07:23:06.734Z,32.03
2023-02-16T07:25:36.138Z,29.17
2023-02-16T07:28:05.124Z,33.30
2023-02-16T07:30:33.279Z,29.37
2023-02-16T07:33:01.392Z,25.97
2023-02-16T07:35:30.788Z,27.43
2023-02-16T07:37:58.771Z,27.10
2023-02-16T07:40:27.049Z,27.80
2023-02-16T07:42:55.051Z,29.37
2023-02-16T07:45:22.978Z,26.73
2023-02-16T07:47:51.136Z,26.80
2023-02-16T07:50:19.389Z,23.70
2023-02-16T07:53:07.630Z,27.30
2023-02-16T07:55:40.594Z,27.37
2023-02-16T07:58:08.748Z,27.73
2023-02-16T08:00:37.223Z,32.13
2023-02-16T08:03:05.932Z,28.30
2023-02-16T08:05:35.665Z,30.30
2023-02-16T08:08:05.307Z,29.83
2023-02-16T08:10:33.196Z,33.60
2023-02-16T08:13:01.334Z,33.63
2023-02-16T08:15:29.226Z,36.30
2023-02-16T08:17:57.703Z,33.10
2023-02-16T08:20:43.242Z,37.97
2023-02-16T08:23:15.404Z,50.90
2023-02-16T08:25:44.089Z,33.13
2023-02-16T08:28:15.158Z,27.00
2023-02-16T08:30:43.135Z,29.10
2023-02-16T08:33:11.740Z,25.97
2023-02-16T08:35:39.861Z,26.00
2023-02-16T08:38:08.913Z,25.10
2023-02-16T08:40:41.869Z,22.60
2023-02-16T08:43:09.894Z,23.17
2023-02-16T08:45:38.239Z,25.80
2023-02-16T08:48:06.737Z,23.43
2023-02-16T08:50:37.129Z,21.73
2023-02-16T08:53:05.104Z,22.97
2023-02-16T08:55:33.068Z,22.80
2023-02-16T08:58:04.683Z,19.43
2023-02-16T09:00:41.789Z,19.03
2023-02-16T09:03:20.692Z,18.97
2023-02-16T09:05:50.750Z,19.17
2023-02-16T09:08:19.244Z,18.40
2023-02-16T09:10:47.360Z,16.83
2023-02-16T09:13:16.580Z,19.07
2023-02-16T09:15:45.032Z,20.23
2023-02-16T09:18:14.098Z,19.50
2023-02-16T09:20:46.416Z,19.77
2023-02-16T09:23:14.906Z,26.50
2023-02-16T09:25:42.916Z,34.50
2023-02-16T09:28:11.630Z,23.30
2023-02-16T09:30:41.052Z,26.37
2023-02-16T09:33:08.971Z,28.37
2023-02-16T09:35:39.896Z,21.40
2023-02-16T09:38:08.013Z,18.67
2023-02-16T09:40:37.615Z,20.23
2023-02-16T09:43:13.258Z,19.20
2023-02-16T09:45:46.051Z,15.40
2023-02-16T09:48:25.391Z,19.40
2023-02-16T09:50:55.372Z,14.53
2023-02-16T09:53:33.744Z,18.20
2023-02-16T09:56:10.146Z,20.80
2023-02-16T09:58:43.059Z,20.23
2023-02-16T10:01:21.752Z,19.50
2023-02-16T10:03:59.815Z,20.30
2023-02-16T10:06:43.135Z,27.27
2023-02-16T10:09:14.141Z,20.27
2023-02-16T10:11:48.969Z,22.17
2023-02-16T10:14:30.845Z,17.40
2023-02-16T10:17:06.834Z,27.17
2023-02-16T10:19:40.005Z,18.07
2023-02-16T10:22:17.010Z,15.97
2023-02-16T10:24:53.728Z,20.17
2023-02-16T10:27:23.797Z,20.43
2023-02-16T10:29:52.227Z,21.63
2023-02-16T10:32:29.209Z,22.87
2023-02-16T10:35:04.677Z,23.03
2023-02-16T10:37:43.593Z,17.83
2023-02-16T10:40:25.919Z,18.13
2023-02-16T10:43:01.023Z,31.73
2023-02-16T10:45:34.394Z,20.20
2023-02-16T10:48:03.749Z,18.67
2023-02-16T10:50:37.860Z,16.37
2023-02-16T10:53:11.280Z,20.77
2023-02-16T10:55:39.862Z,20.57
2023-02-16T10:58:18.331Z,19.07
2023-02-16T11:00:52.761Z,15.87
2023-02-16T11:03:25.617Z,17.93
2023-02-16T11:05:55.473Z,16.63
2023-02-16T11:08:25.762Z,20.70
2023-02-16T11:10:55.059Z,23.60
2023-02-16T11:13:31.488Z,18.03
2023-02-16T11:16:03.008Z,27.90
2023-02-16T11:18:39.136Z,34.20
2023-02-16T11:21:08.328Z,21.60
2023-02-16T11:23:37.504Z,28.57
2023-02-16T11:26:08.969Z,23.77
2023-02-16T11:28:39.130Z,22.50
2023-02-16T11:31:17.023Z,22.67
2023-02-16T11:33:57.519Z,21.23
2023-02-16T11:36:37.409Z,25.67
2023-02-16T11:39:11.105Z,18.97
2023-02-16T11:41:39.640Z,19.07
2023-02-16T11:44:24.541Z,18.00
2023-02-16T11:46:52.848Z,17.60
2023-02-16T11:49:32.536Z,24.10
2023-02-16T11:52:00.952Z,19.20
2023-02-16T11:55:08.111Z,23.67
2023-02-16T11:57:37.432Z,20.30
2023-02-16T12:00:16.259Z,22.67
2023-02-16T12:03:08.000Z,16.17
2023-02-16T12:05:50.675Z,18.50
2023-02-16T12:08:36.842Z,19.27
2023-02-16T12:11:25.415Z,18.43
2023-02-16T12:14:11.623Z,18.03
2023-02-16T12:16:46.078Z,16.37
2023-02-16T12:19:32.369Z,20.37
2023-02-16T12:22:10.149Z,18.07
2023-02-16T12:24:48.248Z,19.43
2023-02-16T12:27:21.105Z,31.53
2023-02-16T12:29:57.157Z,14.53
2023-02-16T12:32:44.135Z,22.60
2023-02-16T12:35:41.612Z,19.07
2023-02-16T12:38:24.636Z,16.30
2023-02-16T12:41:03.862Z,14.23
2023-02-16T12:43:38.348Z,19.03
2023-02-16T12:46:14.604Z,18.00
2023-02-16T12:48:46.947Z,15.70
2023-02-16T12:51:20.300Z,17.23
2023-02-16T12:53:56.224Z,13.30
2023-02-16T12:56:29.281Z,17.53
2023-02-16T12:59:08.198Z,14.03
2023-02-16T13:01:36.991Z,14.27
2023-02-16T13:04:14.336Z,17.80
2023-02-16T13:06:49.790Z,19.00
2023-02-16T13:09:37.456Z,12.80
2023-02-16T13:12:12.193Z,17.03
2023-02-16T13:14:45.067Z,16.03
2023-02-16T13:17:17.748Z,15.00
2023-02-16T13:19:47.514Z,14.77
2023-02-16T13:22:52.907Z,14.67
2023-02-16T13:25:47.491Z,19.97
2023-02-16T13:28:38.421Z,19.93
2023-02-16T13:31:29.426Z,15.83
2023-02-16T13:34:26.882Z,10.50
2023-02-16T13:37:10.450Z,15.20
2023-02-16T13:39:54.171Z,12.13
2023-02-16T13:42:59.262Z,16.23
2023-02-16T13:45:30.158Z,17.60
2023-02-16T13:48:01.752Z,12.83
2023-02-16T13:50:34.381Z,15.73
2023-02-16T13:53:19.623Z,14.70
2023-02-16T13:55:52.928Z,15.03
2023-02-16T13:58:34.193Z,12.00
2023-02-16T14:01:38.949Z,13.03
2023-02-16T14:04:13.856Z,18.60
2023-02-16T14:06:42.946Z,13.40
2023-02-16T14:09:34.518Z,13.60
2023-02-16T14:12:04.414Z,13.97
2023-02-16T14:14:36.777Z,13.63
2023-02-16T14:17:17.808Z,12.90
2023-02-16T14:19:56.545Z,12.77
2023-02-16T14:22:36.138Z,11.93
2023-02-16T14:25:08.047Z,14.43
2023-02-16T14:27:47.908Z,14.40
2023-02-16T14:30:24.452Z,15.30
2023-02-16T14:32:57.586Z,12.37
2023-02-16T14:35:30.177Z,15.00
2023-02-16T14:37:59.938Z,11.20
2023-02-16T14:40:50.360Z,10.60
2023-02-16T14:43:32.718Z,19.50
2023-02-16T14:46:29.459Z,10.40
2023-02-16T14:49:30.222Z,11.53
2023-02-16T14:52:36.112Z,11.70
2023-02-16T14:55:27.568Z,13.23
2023-02-16T14:58:00.949Z,13.90
2023-02-16T15:00:34.720Z,13.80
2023-02-16T15:03:07.480Z,16.13
2023-02-16T15:05:43.277Z,14.10
2023-02-16T15:08:17.609Z,17.23
2023-02-16T15:10:47.909Z,10.97
2023-02-16T15:13:22.006Z,11.93
2023-02-16T15:15:56.303Z,15.10
2023-02-16T15:18:29.255Z,15.00
2023-02-16T15:20:58.526Z,10.33
2023-02-16T15:23:28.359Z,10.50
2023-02-16T15:25:59.997Z,16.00
2023-02-16T15:28:31.069Z,11.47
2023-02-16T15:31:05.885Z,10.30
2023-02-16T15:33:37.685Z,13.47
2023-02-16T15:36:10.799Z,15.03
2023-02-16T15:38:41.958Z,8.67
2023-02-16T15:41:14.263Z,10.20
2023-02-16T15:43:50.446Z,12.80
2023-02-16T15:46:33.329Z,10.67
2023-02-16T15:49:12.752Z,11.93
2023-02-16T15:51:46.634Z,13.13
2023-02-16T15:54:24.092Z,11.63
2023-02-16T15:56:56.767Z,16.23
2023-02-16T15:59:35.262Z,11.90
2023-02-16T16:02:13.999Z,14.97
2023-02-16T16:04:45.215Z,9.90
2023-02-16T16:07:16.277Z,11.40
2023-02-16T16:09:45.807Z,18.50
2023-02-16T16:12:16.310Z,12.00
2023-02-16T16:14:51.160Z,11.27
2023-02-16T16:17:24.208Z,13.33
2023-02-16T16:19:55.491Z,11.27
2023-02-16T16:22:35.389Z,12.40
2023-02-16T16:25:05.188Z,16.13
2023-02-16T16:27:36.532Z,12.67
2023-02-16T16:30:28.080Z,11.70
2023-02-16T16:33:05.944Z,11.67
2023-02-16T16:35:44.060Z,11.43
2023-02-16T16:38:24.428Z,11.80
2023-02-16T16:40:56.174Z,9.53
2023-02-16T16:43:28.580Z,11.27
2023-02-16T16:46:11.514Z,15.93
2023-02-16T16:53:03.595Z,11.83
2023-02-16T16:55:35.821Z,11.00
2023-02-16T17:01:16.397Z,14.73
2023-02-16T17:03:47.075Z,13.83
2023-02-16T17:06:16.143Z,17.47
2023-02-16T17:08:45.956Z,16.60
2023-02-16T17:11:37.076Z,14.50
2023-02-16T17:14:11.243Z,22.00
2023-02-16T17:17:09.679Z,19.50
2023-02-16T17:19:37.894Z,31.37
2023-02-16T17:22:14.594Z,34.60
2023-02-16T17:24:44.453Z,24.10
2023-02-16T17:27:12.813Z,18.20
2023-02-16T17:29:49.486Z,26.30
2023-02-16T17:32:57.166Z,19.47
2023-02-16T17:36:01.473Z,28.13
2023-02-16T17:38:32.899Z,19.30
2023-02-16T17:41:04.201Z,23.00
2023-02-16T17:43:48.499Z,23.70
2023-02-16T17:50:34.374Z,18.03
2023-02-16T17:53:07.946Z,24.40
2023-02-16T17:55:41.656Z,17.20
2023-02-16T17:58:30.200Z,17.30
2023-02-16T18:00:58.429Z,19.77
2023-02-16T18:03:26.353Z,18.37
2023-02-16T18:05:54.169Z,21.23
2023-02-16T18:08:25.091Z,17.93
2023-02-16T18:11:01.702Z,20.10
2023-02-16T18:13:31.214Z,15.83
2023-02-16T18:16:00.967Z,12.27
2023-02-16T18:18:29.162Z,17.27
2023-02-16T18:20:57.585Z,17.07
2023-02-16T18:23:26.187Z,17.33
2023-02-16T18:25:54.483Z,13.10
2023-02-16T18:28:27.529Z,11.50
2023-02-16T18:30:56.906Z,21.57
2023-02-16T18:33:25.591Z,17.10
2023-02-16T18:35:55.990Z,16.17
2023-02-16T18:38:25.383Z,15.27
2023-02-16T18:40:54.088Z,11.00
2023-02-16T18:43:22.885Z,15.23
2023-02-16T18:45:51.096Z,17.10
2023-02-16T18:48:20.309Z,23.30
2023-02-16T18:50:48.128Z,15.33
2023-02-16T18:53:15.999Z,17.93
2023-02-16T18:55:43.842Z,22.40
2023-02-16T18:58:14.346Z,18.03
2023-02-16T19:00:43.054Z,16.47
2023-02-16T19:03:11.149Z,15.87
2023-02-16T19:05:40.372Z,21.07
2023-02-16T19:08:08.203Z,20.63
2023-02-16T19:10:36.057Z,18.57
2023-02-16T19:13:05.108Z,14.13
2023-02-16T19:15:33.283Z,16.63
2023-02-16T19:18:06.676Z,20.20
2023-02-16T19:20:35.378Z,17.73
2023-02-16T19:23:04.860Z,16.33
2023-02-16T19:25:33.823Z,22.20
2023-02-16T19:28:01.690Z,19.03
2023-02-16T19:30:29.731Z,16.53
2023-02-16T19:32:57.657Z,24.43
2023-02-16T19:35:25.557Z,24.10
2023-02-16T19:37:53.618Z,16.20
2023-02-16T19:40:23.194Z,15.53
2023-02-16T19:42:51.088Z,21.40
2023-02-16T19:45:19.052Z,16.63
2023-02-16T19:47:46.952Z,15.90
2023-02-16T19:50:14.775Z,17.70
2023-02-16T19:52:42.626Z,30.53
2023-02-16T19:55:11.535Z,20.23
2023-02-16T19:57:41.074Z,19.70
2023-02-16T20:00:13.347Z,15.60
2023-02-16T20:02:41.437Z,15.50
2023-02-16T20:05:10.953Z,20.97
2023-02-16T20:07:38.879Z,20.70
2023-02-16T20:10:08.005Z,16.80
2023-02-16T20:12:35.955Z,20.10
2023-02-16T20:15:11.654Z,18.50
2023-02-16T20:17:39.635Z,15.10
2023-02-16T20:20:08.550Z,20.13
2023-02-16T20:22:36.390Z,13.67
2023-02-16T20:25:04.580Z,18.97
2023-02-16T20:27:32.443Z,20.10
2023-02-16T20:30:02.790Z,14.17
2023-02-16T20:32:31.987Z,19.33
2023-02-16T20:35:02.695Z,18.37
2023-02-16T20:37:30.991Z,20.03
2023-02-16T20:39:58.966Z,20.43
2023-02-16T20:42:27.139Z,20.93
2023-02-16T20:44:55.001Z,20.57
2023-02-16T20:47:22.789Z,17.73
2023-02-16T20:49:52.112Z,17.63
2023-02-16T20:52:19.972Z,21.87
2023-02-16T20:54:48.019Z,18.13
2023-02-16T20:57:26.352Z,21.80
2023-02-16T20:59:55.005Z,19.93
2023-02-16T21:02:23.732Z,22.33
2023-02-16T21:04:53.683Z,22.80
2023-02-16T21:07:21.527Z,18.20
2023-02-16T21:09:49.408Z,21.70
2023-02-16T21:12:17.369Z,16.13
2023-02-16T21:14:45.455Z,18.27
2023-02-16T21:17:13.457Z,20.20
2023-02-16T21:19:41.408Z,20.13
2023-02-16T21:22:11.772Z,16.23
2023-02-16T21:24:40.761Z,13.30
2023-02-16T21:27:08.741Z,19.97
2023-02-16T21:29:37.074Z,15.00
2023-02-16T21:32:05.684Z,17.70
2023-02-16T21:34:34.396Z,14.67
2023-02-16T21:37:02.455Z,21.80
2023-02-16T21:39:49.325Z,15.23
2023-02-16T21:42:17.180Z,17.83
2023-02-16T21:44:45.014Z,15.90
2023-02-16T21:47:31.270Z,15.50
2023-02-16T21:49:59.323Z,15.97
2023-02-16T21:52:27.795Z,14.40
2023-02-16T21:55:14.871Z,15.13
2023-02-16T21:57:43.176Z,26.00
2023-02-16T22:00:15.452Z,22.43
2023-02-16T22:02:43.294Z,19.77
2023-02-16T22:05:13.542Z,16.83
2023-02-16T22:07:41.507Z,19.70
2023-02-16T22:10:11.596Z,26.33
2023-02-16T22:12:39.396Z,17.00
2023-02-16T22:15:07.985Z,15.90
2023-02-16T22:17:35.973Z,18.20
2023-02-16T22:20:04.519Z,26.97
2023-02-16T22:22:32.413Z,22.53
2023-02-16T22:25:00.378Z,20.67
2023-02-16T22:27:29.617Z,19.47
2023-02-16T22:29:57.607Z,27.10
2023-02-16T22:32:25.473Z,19.23
2023-02-16T22:34:54.677Z,13.80
2023-02-16T22:37:22.646Z,23.70
2023-02-16T22:39:51.856Z,17.73
2023-02-16T22:42:19.845Z,18.60
2023-02-16T22:44:49.121Z,16.13
2023-02-16T22:47:17.155Z,13.67
2023-02-16T22:49:45.018Z,18.00
2023-02-16T22:52:12.992Z,15.93
2023-02-16T22:54:40.866Z,19.77
2023-02-16T22:57:08.736Z,17.70
2023-02-16T22:59:36.848Z,20.37
2023-02-16T23:02:06.210Z,20.80
2023-02-16T23:04:34.065Z,17.30
2023-02-16T23:07:01.979Z,18.50
2023-02-16T23:09:29.814Z,15.60
2023-02-16T23:11:58.199Z,15.17
2023-02-16T23:14:27.326Z,18.50
2023-02-16T23:16:56.380Z,15.87
2023-02-16T23:19:27.312Z,15.17
2023-02-16T23:21:55.254Z,15.90
2023-02-16T23:24:24.059Z,15.80
2023-02-16T23:26:52.537Z,18.67
2023-02-16T23:29:20.551Z,15.67
2023-02-16T23:31:48.982Z,18.70
2023-02-16T23:34:18.390Z,15.70
2023-02-16T23:36:47.650Z,16.70
2023-02-16T23:39:18.110Z,19.27
2023-02-16T23:41:46.089Z,20.03
2023-02-16T23:44:15.106Z,15.13
2023-02-16T23:46:43.028Z,15.40
2023-02-16T23:49:10.923Z,15.73
2023-02-16T23:51:38.825Z,15.77
2023-02-16T23:54:10.872Z,15.40
2023-02-16T23:56:40.437Z,15.63
2023-02-16T23:59:08.380Z,19.50
